sensor_id;sensor_type;location;lat;lon;timestamp;pressure;altitude;pressure_sealevel;temperature;humidity
37132;BME280;23035;50.032;21.978;2023-02-12T00:03:19;65464.06;;;2.79;100.00
37132;BME280;23035;50.032;21.978;2023-02-12T00:08:25;65519.94;;;3.30;100.00
37132;BME280;23035;50.032;21.978;2023-02-12T00:13:29;65472.59;;;2.87;100.00
37132;BME280;23035;50.032;21.978;2023-02-12T00:18:34;65487.53;;;3.01;100.00
37132;BME280;23035;50.032;21.978;2023-02-12T00:23:40;65484.97;;;3.01;100.00
37132;BME280;23035;50.032;21.978;2023-02-12T00:28:44;65548.94;;;3.62;100.00
37132;BME280;23035;50.032;21.978;2023-02-12T00:33:49;65510.13;;;3.28;100.00
37132;BME280;23035;50.032;21.978;2023-02-12T00:38:55;65520.03;;;3.32;100.00
37132;BME280;23035;50.032;21.978;2023-02-12T00:44:00;65572.81;;;3.83;100.00
37132;BME280;23035;50.032;21.978;2023-02-12T00:49:05;65518.00;;;3.33;100.00
37132;BME280;23035;50.032;21.978;2023-02-12T00:54:11;65550.53;;;3.64;100.00
37132;BME280;23035;50.032;21.978;2023-02-12T00:59:15;65558.88;;;3.67;100.00
37132;BME280;23035;50.032;21.978;2023-02-12T01:04:20;65530.38;;;3.47;100.00
37132;BME280;23035;50.032;21.978;2023-02-12T01:09:26;65481.66;;;2.96;100.00
37132;BME280;23035;50.032;21.978;2023-02-12T01:14:30;65501.94;;;3.15;100.00
37132;BME280;23035;50.032;21.978;2023-02-12T01:19:34;65508.22;;;3.19;100.00
37132;BME280;23035;50.032;21.978;2023-02-12T01:24:40;65508.53;;;3.26;100.00
37132;BME280;23035;50.032;21.978;2023-02-12T01:29:44;65561.97;;;3.67;100.00
37132;BME280;23035;50.032;21.978;2023-02-12T01:34:48;65493.41;;;3.07;100.00
37132;BME280;23035;50.032;21.978;2023-02-12T01:39:57;65478.81;;;2.88;100.00
37132;BME280;23035;50.032;21.978;2023-02-12T01:50:24;65556.31;;;3.67;100.00
37132;BME280;23035;50.032;21.978;2023-02-12T01:55:30;65507.25;;;3.20;100.00
37132;BME280;23035;50.032;21.978;2023-02-12T02:00:34;65539.31;;;3.53;100.00
37132;BME280;23035;50.032;21.978;2023-02-12T02:05:43;65558.72;;;3.77;100.00
37132;BME280;23035;50.032;21.978;2023-02-12T02:10:50;65568.13;;;3.81;100.00
37132;BME280;23035;50.032;21.978;2023-02-12T02:15:59;65570.69;;;3.81;100.00
37132;BME280;23035;50.032;21.978;2023-02-12T02:27:04;65570.91;;;3.86;100.00
37132;BME280;23035;50.032;21.978;2023-02-12T02:32:18;65519.31;;;3.27;100.00
37132;BME280;23035;50.032;21.978;2023-02-12T02:37:30;65529.84;;;3.47;100.00
37132;BME280;23035;50.032;21.978;2023-02-12T02:42:40;65461.94;;;2.77;100.00
37132;BME280;23035;50.032;21.978;2023-02-12T02:47:53;65462.91;;;2.75;100.00
37132;BME280;23035;50.032;21.978;2023-02-12T02:53:01;65458.84;;;2.76;100.00
37132;BME280;23035;50.032;21.978;2023-02-12T02:58:10;65428.28;;;2.42;100.00
37132;BME280;23035;50.032;21.978;2023-02-12T03:03:21;65417.19;;;2.34;100.00
37132;BME280;23035;50.032;21.978;2023-02-12T03:08:29;65432.00;;;2.46;100.00
37132;BME280;23035;50.032;21.978;2023-02-12T03:13:39;65424.22;;;2.43;100.00
37132;BME280;23035;50.032;21.978;2023-02-12T03:18:50;65411.88;;;2.29;100.00
37132;BME280;23035;50.032;21.978;2023-02-12T03:23:59;65436.91;;;2.53;100.00
37132;BME280;23035;50.032;21.978;2023-02-12T03:29:05;65450.03;;;2.61;100.00
37132;BME280;23035;50.032;21.978;2023-02-12T03:34:16;65414.00;;;2.31;100.00
37132;BME280;23035;50.032;21.978;2023-02-12T03:39:28;65398.44;;;2.14;100.00
37132;BME280;23035;50.032;21.978;2023-02-12T03:44:43;65393.75;;;2.12;100.00
37132;BME280;23035;50.032;21.978;2023-02-12T03:49:58;65385.44;;;2.09;100.00
37132;BME280;23035;50.032;21.978;2023-02-12T03:55:05;65355.94;;;1.76;100.00
37132;BME280;23035;50.032;21.978;2023-02-12T04:00:12;65315.38;;;1.34;100.00
37132;BME280;23035;50.032;21.978;2023-02-12T04:05:21;65273.44;;;0.97;100.00
37132;BME280;23035;50.032;21.978;2023-02-12T04:10:30;65297.94;;;1.20;100.00
37132;BME280;23035;50.032;21.978;2023-02-12T04:15:45;65270.88;;;0.97;100.00
37132;BME280;23035;50.032;21.978;2023-02-12T04:21:00;65271.31;;;0.95;100.00
37132;BME280;23035;50.032;21.978;2023-02-12T04:26:15;65266.41;;;0.88;100.00
37132;BME280;23035;50.032;21.978;2023-02-12T04:31:25;65261.22;;;0.85;100.00
37132;BME280;23035;50.032;21.978;2023-02-12T04:36:37;65247.69;;;0.67;100.00
37132;BME280;23035;50.032;21.978;2023-02-12T04:41:45;65272.38;;;0.96;100.00
37132;BME280;23035;50.032;21.978;2023-02-12T04:46:50;65247.47;;;0.74;100.00
37132;BME280;23035;50.032;21.978;2023-02-12T04:51:56;65281.00;;;1.06;100.00
37132;BME280;23035;50.032;21.978;2023-02-12T04:57:02;65294.09;;;1.14;100.00
37132;BME280;23035;50.032;21.978;2023-02-12T05:02:06;65246.72;;;0.69;100.00
37132;BME280;23035;50.032;21.978;2023-02-12T05:07:12;65264.94;;;0.89;100.00
37132;BME280;23035;50.032;21.978;2023-02-12T05:12:17;65313.44;;;1.37;100.00
37132;BME280;23035;50.032;21.978;2023-02-12T05:17:21;65265.56;;;0.92;100.00
37132;BME280;23035;50.032;21.978;2023-02-12T05:22:28;65264.06;;;0.93;100.00
37132;BME280;23035;50.032;21.978;2023-02-12T05:27:32;65267.16;;;0.93;100.00
37132;BME280;23035;50.032;21.978;2023-02-12T05:32:37;65215.34;;;0.39;100.00
37132;BME280;23035;50.032;21.978;2023-02-12T05:37:42;65188.56;;;0.20;100.00
37132;BME280;23035;50.032;21.978;2023-02-12T05:42:46;65181.44;;;0.09;100.00
37132;BME280;23035;50.032;21.978;2023-02-12T05:47:51;65239.19;;;0.59;100.00
37132;BME280;23035;50.032;21.978;2023-02-12T05:52:58;65228.13;;;0.51;100.00
37132;BME280;23035;50.032;21.978;2023-02-12T05:58:03;65225.47;;;0.48;100.00
37132;BME280;23035;50.032;21.978;2023-02-12T06:03:08;65268.97;;;0.88;100.00
37132;BME280;23035;50.032;21.978;2023-02-12T06:08:13;65242.47;;;0.65;100.00
37132;BME280;23035;50.032;21.978;2023-02-12T06:13:18;65231.75;;;0.52;100.00
37132;BME280;23035;50.032;21.978;2023-02-12T06:18:23;65254.41;;;0.81;100.00
37132;BME280;23035;50.032;21.978;2023-02-12T06:23:29;65229.81;;;0.55;100.00
37132;BME280;23035;50.032;21.978;2023-02-12T06:28:33;65212.16;;;0.36;100.00
37132;BME280;23035;50.032;21.978;2023-02-12T06:33:39;65273.56;;;0.99;100.00
37132;BME280;23035;50.032;21.978;2023-02-12T06:38:47;65233.44;;;0.56;100.00
37132;BME280;23035;50.032;21.978;2023-02-12T06:43:52;65220.59;;;0.41;100.00
37132;BME280;23035;50.032;21.978;2023-02-12T06:48:57;65204.72;;;0.28;100.00
37132;BME280;23035;50.032;21.978;2023-02-12T06:54:04;65171.75;;;-0.03;100.00
37132;BME280;23035;50.032;21.978;2023-02-12T06:59:12;65187.72;;;0.12;100.00
37132;BME280;23035;50.032;21.978;2023-02-12T07:04:17;65197.81;;;0.22;100.00
37132;BME280;23035;50.032;21.978;2023-02-12T07:09:23;65192.06;;;0.19;100.00
37132;BME280;23035;50.032;21.978;2023-02-12T07:14:29;65235.56;;;0.58;100.00
37132;BME280;23035;50.032;21.978;2023-02-12T07:19:34;65214.72;;;0.36;100.00
37132;BME280;23035;50.032;21.978;2023-02-12T07:24:40;65180.38;;;0.08;100.00
37132;BME280;23035;50.032;21.978;2023-02-12T07:29:45;65208.03;;;0.34;100.00
37132;BME280;23035;50.032;21.978;2023-02-12T07:34:49;65226.53;;;0.49;100.00
37132;BME280;23035;50.032;21.978;2023-02-12T07:39:55;65209.50;;;0.33;100.00
37132;BME280;23035;50.032;21.978;2023-02-12T07:45:00;65273.97;;;0.97;100.00
37132;BME280;23035;50.032;21.978;2023-02-12T07:50:06;65312.81;;;1.34;100.00
37132;BME280;23035;50.032;21.978;2023-02-12T07:55:12;65298.66;;;1.26;100.00
37132;BME280;23035;50.032;21.978;2023-02-12T08:00:17;65303.88;;;1.28;100.00
37132;BME280;23035;50.032;21.978;2023-02-12T08:05:22;65324.53;;;1.46;100.00
37132;BME280;23035;50.032;21.978;2023-02-12T08:10:28;65324.53;;;1.46;100.00
37132;BME280;23035;50.032;21.978;2023-02-12T08:15:34;65292.59;;;1.15;100.00
37132;BME280;23035;50.032;21.978;2023-02-12T08:20:38;65231.53;;;0.59;100.00
37132;BME280;23035;50.032;21.978;2023-02-12T08:25:44;65284.09;;;1.07;100.00
37132;BME280;23035;50.032;21.978;2023-02-12T08:30:48;65337.41;;;1.60;100.00
37132;BME280;23035;50.032;21.978;2023-02-12T08:36:00;65289.41;;;1.12;100.00
37132;BME280;23035;50.032;21.978;2023-02-12T08:41:08;65362.66;;;1.77;100.00
37132;BME280;23035;50.032;21.978;2023-02-12T08:46:15;65436.38;;;2.52;100.00
37132;BME280;23035;50.032;21.978;2023-02-12T08:51:21;65374.47;;;1.91;100.00
37132;BME280;23035;50.032;21.978;2023-02-12T08:56:29;65338.38;;;1.59;100.00
37132;BME280;23035;50.032;21.978;2023-02-12T09:01:36;65298.38;;;1.18;100.00
37132;BME280;23035;50.032;21.978;2023-02-12T09:06:43;65289.94;;;1.12;100.00
37132;BME280;23035;50.032;21.978;2023-02-12T09:11:50;65308.66;;;1.33;100.00
37132;BME280;23035;50.032;21.978;2023-02-12T09:16:55;65327.75;;;1.49;100.00
37132;BME280;23035;50.032;21.978;2023-02-12T09:22:00;65439.22;;;2.60;100.00
37132;BME280;23035;50.032;21.978;2023-02-12T09:27:06;65452.16;;;2.63;100.00
37132;BME280;23035;50.032;21.978;2023-02-12T09:32:10;65400.69;;;2.18;100.00
37132;BME280;23035;50.032;21.978;2023-02-12T09:37:15;65444.91;;;2.61;100.00
37132;BME280;23035;50.032;21.978;2023-02-12T09:42:29;65378.84;;;1.97;100.00
37132;BME280;23035;50.032;21.978;2023-02-12T09:47:42;65366.38;;;1.81;100.00
37132;BME280;23035;50.032;21.978;2023-02-12T09:52:48;65391.19;;;2.12;100.00
37132;BME280;23035;50.032;21.978;2023-02-12T09:57:55;65532.19;;;3.41;100.00
37132;BME280;23035;50.032;21.978;2023-02-12T10:03:01;65522.81;;;3.37;100.00
37132;BME280;23035;50.032;21.978;2023-02-12T10:08:26;65447.66;;;2.66;100.00
37132;BME280;23035;50.032;21.978;2023-02-12T10:13:38;65417.09;;;2.32;100.00
37132;BME280;23035;50.032;21.978;2023-02-12T10:19:11;65582.00;;;3.94;100.00
37132;BME280;23035;50.032;21.978;2023-02-12T10:24:42;65430.63;;;2.49;100.00
37132;BME280;23035;50.032;21.978;2023-02-12T10:29:53;65418.78;;;2.36;100.00
37132;BME280;23035;50.032;21.978;2023-02-12T10:35:01;65612.41;;;4.23;100.00
37132;BME280;23035;50.032;21.978;2023-02-12T10:40:17;65593.97;;;3.98;100.00
37132;BME280;23035;50.032;21.978;2023-02-12T10:45:28;65509.91;;;3.23;100.00
37132;BME280;23035;50.032;21.978;2023-02-12T10:50:45;65385.22;;;2.04;100.00
37132;BME280;23035;50.032;21.978;2023-02-12T11:01:30;65489.03;;;3.00;100.00
37132;BME280;23035;50.032;21.978;2023-02-12T11:06:35;65410.28;;;2.27;100.00
37132;BME280;23035;50.032;21.978;2023-02-12T11:11:39;65505.56;;;3.16;98.81
37132;BME280;23035;50.032;21.978;2023-02-12T11:16:51;65349.22;;;1.74;100.00
37132;BME280;23035;50.032;21.978;2023-02-12T11:22:04;65383.72;;;2.05;100.00
37132;BME280;23035;50.032;21.978;2023-02-12T11:27:21;65412.31;;;2.27;100.00
37132;BME280;23035;50.032;21.978;2023-02-12T11:32:28;65411.00;;;2.33;100.00
37132;BME280;23035;50.032;21.978;2023-02-12T11:37:34;65459.28;;;2.74;96.90
37132;BME280;23035;50.032;21.978;2023-02-12T11:42:47;65450.41;;;2.71;98.78
37132;BME280;23035;50.032;21.978;2023-02-12T11:47:54;65406.53;;;2.24;98.04
37132;BME280;23035;50.032;21.978;2023-02-12T11:53:01;65432.09;;;2.48;95.58
37132;BME280;23035;50.032;21.978;2023-02-12T11:58:14;65474.63;;;2.86;94.80
37132;BME280;23035;50.032;21.978;2023-02-12T12:03:25;65422.97;;;2.37;96.99
37132;BME280;23035;50.032;21.978;2023-02-12T12:08:37;65359.56;;;1.77;100.00
37132;BME280;23035;50.032;21.978;2023-02-12T12:13:46;65429.00;;;2.48;97.96
37132;BME280;23035;50.032;21.978;2023-02-12T12:18:56;65382.56;;;2.01;100.00
37132;BME280;23035;50.032;21.978;2023-02-12T12:24:23;65358.19;;;1.80;100.00
37132;BME280;23035;50.032;21.978;2023-02-12T12:29:40;65325.19;;;1.49;100.00
37132;BME280;23035;50.032;21.978;2023-02-12T12:34:51;65322.41;;;1.43;100.00
37132;BME280;23035;50.032;21.978;2023-02-12T12:40:25;65370.09;;;1.84;100.00
37132;BME280;23035;50.032;21.978;2023-02-12T12:51:22;65393.75;;;2.12;100.00
37132;BME280;23035;50.032;21.978;2023-02-12T12:56:38;65409.63;;;2.24;100.00
37132;BME280;23035;50.032;21.978;2023-02-12T13:01:59;65397.59;;;2.18;100.00
37132;BME280;23035;50.032;21.978;2023-02-12T13:07:18;65446.41;;;2.59;96.60
37132;BME280;23035;50.032;21.978;2023-02-12T13:12:59;65351.06;;;1.68;100.00
37132;BME280;23035;50.032;21.978;2023-02-12T13:18:17;65371.47;;;1.93;100.00
37132;BME280;23035;50.032;21.978;2023-02-12T13:23:35;65416.88;;;2.39;97.18
37132;BME280;23035;50.032;21.978;2023-02-12T13:28:45;65381.50;;;2.00;100.00
37132;BME280;23035;50.032;21.978;2023-02-12T13:33:54;65399.63;;;2.17;100.00
37132;BME280;23035;50.032;21.978;2023-02-12T13:39:08;65410.91;;;2.30;100.00
37132;BME280;23035;50.032;21.978;2023-02-12T13:44:18;65279.94;;;1.05;100.00
37132;BME280;23035;50.032;21.978;2023-02-12T13:49:36;65354.34;;;1.74;100.00
37132;BME280;23035;50.032;21.978;2023-02-12T13:54:54;65429.66;;;2.51;100.00
37132;BME280;23035;50.032;21.978;2023-02-12T14:00:01;65643.25;;;4.50;86.08
37132;BME280;23035;50.032;21.978;2023-02-12T14:05:26;65627.78;;;4.35;85.34
37132;BME280;23035;50.032;21.978;2023-02-12T14:10:35;65778.88;;;5.79;76.53
37132;BME280;23035;50.032;21.978;2023-02-12T14:15:41;65616.06;;;4.24;81.46
37132;BME280;23035;50.032;21.978;2023-02-12T14:20:49;65625.00;;;4.30;81.50
37132;BME280;23035;50.032;21.978;2023-02-12T14:26:14;65586.72;;;3.96;82.94
37132;BME280;23035;50.032;21.978;2023-02-12T14:31:29;65476.34;;;2.91;90.56
37132;BME280;23035;50.032;21.978;2023-02-12T14:36:36;65368.19;;;1.87;98.14
37132;BME280;23035;50.032;21.978;2023-02-12T14:41:45;65382.03;;;2.00;98.73
37132;BME280;23035;50.032;21.978;2023-02-12T14:46:51;65362.34;;;1.82;100.00
37132;BME280;23035;50.032;21.978;2023-02-12T14:51:59;65387.56;;;2.11;100.00
37132;BME280;23035;50.032;21.978;2023-02-12T14:57:11;65460.88;;;2.76;95.55
37132;BME280;23035;50.032;21.978;2023-02-12T15:02:23;65444.91;;;2.61;94.24
37132;BME280;23035;50.032;21.978;2023-02-12T15:07:32;65441.06;;;2.54;96.63
37132;BME280;23035;50.032;21.978;2023-02-12T15:12:43;65449.34;;;2.70;95.54
37132;BME280;23035;50.032;21.978;2023-02-12T15:17:55;65512.91;;;3.21;91.99
37132;BME280;23035;50.032;21.978;2023-02-12T15:23:01;65454.06;;;2.72;97.28
37132;BME280;23035;50.032;21.978;2023-02-12T15:28:16;65436.47;;;2.55;97.03
37132;BME280;23035;50.032;21.978;2023-02-12T15:33:27;65419.97;;;2.39;99.50
37132;BME280;23035;50.032;21.978;2023-02-12T15:38:34;65546.78;;;3.60;91.92
37132;BME280;23035;50.032;21.978;2023-02-12T15:43:41;65571.75;;;3.82;88.85
37132;BME280;23035;50.032;21.978;2023-02-12T15:48:45;65573.03;;;3.88;88.59
37132;BME280;23035;50.032;21.978;2023-02-12T15:53:50;65520.16;;;3.35;90.01
37132;BME280;23035;50.032;21.978;2023-02-12T15:58:58;65510.56;;;3.26;93.09
37132;BME280;23035;50.032;21.978;2023-02-12T16:04:05;65497.13;;;3.10;94.94
37132;BME280;23035;50.032;21.978;2023-02-12T16:09:15;65496.06;;;3.09;93.51
37132;BME280;23035;50.032;21.978;2023-02-12T16:14:25;65411.88;;;2.29;98.62
37132;BME280;23035;50.032;21.978;2023-02-12T16:19:31;65344.66;;;1.62;100.00
37132;BME280;23035;50.032;21.978;2023-02-12T16:24:45;65294.19;;;1.17;100.00
37132;BME280;23035;50.032;21.978;2023-02-12T16:29:53;65235.16;;;0.60;100.00
37132;BME280;23035;50.032;21.978;2023-02-12T16:35:00;65230.97;;;0.58;100.00
37132;BME280;23035;50.032;21.978;2023-02-12T16:40:22;65223.56;;;0.51;100.00
37132;BME280;23035;50.032;21.978;2023-02-12T16:45:40;65235.16;;;0.60;100.00
37132;BME280;23035;50.032;21.978;2023-02-12T16:50:50;65249.41;;;0.71;100.00
37132;BME280;23035;50.032;21.978;2023-02-12T16:55:55;65281.53;;;1.07;100.00
37132;BME280;23035;50.032;21.978;2023-02-12T17:01:03;65262.06;;;0.81;100.00
37132;BME280;23035;50.032;21.978;2023-02-12T17:06:08;65361.81;;;1.81;100.00
37132;BME280;23035;50.032;21.978;2023-02-12T17:11:14;65277.06;;;0.98;100.00
37132;BME280;23035;50.032;21.978;2023-02-12T17:16:22;65150.69;;;-0.31;100.00
37132;BME280;23035;50.032;21.978;2023-02-12T17:21:34;65202.41;;;0.21;100.00
37132;BME280;23035;50.032;21.978;2023-02-12T17:26:41;65172.41;;;0.00;100.00
37132;BME280;23035;50.032;21.978;2023-02-12T17:31:48;65106.06;;;-0.61;100.00
37132;BME280;23035;50.032;21.978;2023-02-12T17:36:55;65185.16;;;0.12;100.00
37132;BME280;23035;50.032;21.978;2023-02-12T17:42:00;65172.19;;;-0.05;100.00
37132;BME280;23035;50.032;21.978;2023-02-12T17:47:06;65293.66;;;1.16;100.00
37132;BME280;23035;50.032;21.978;2023-02-12T17:52:11;65150.50;;;-0.23;100.00
37132;BME280;23035;50.032;21.978;2023-02-12T17:57:16;65126.69;;;-0.44;100.00
37132;BME280;23035;50.032;21.978;2023-02-12T18:02:22;65087.69;;;-0.86;100.00
37132;BME280;23035;50.032;21.978;2023-02-12T18:07:27;65295.81;;;1.18;100.00
37132;BME280;23035;50.032;21.978;2023-02-12T18:12:33;65238.88;;;0.64;100.00
37132;BME280;23035;50.032;21.978;2023-02-12T18:17:40;65166.66;;;-0.03;100.00
37132;BME280;23035;50.032;21.978;2023-02-12T18:22:45;65104.91;;;-0.65;100.00
37132;BME280;23035;50.032;21.978;2023-02-12T18:27:52;65240.47;;;0.65;100.00
37132;BME280;23035;50.032;21.978;2023-02-12T18:32:58;65196.31;;;0.23;100.00
37132;BME280;23035;50.032;21.978;2023-02-12T18:38:03;65182.06;;;0.12;100.00
37132;BME280;23035;50.032;21.978;2023-02-12T18:43:08;65071.44;;;-0.97;100.00
37132;BME280;23035;50.032;21.978;2023-02-12T18:48:14;65185.78;;;0.15;100.00
37132;BME280;23035;50.032;21.978;2023-02-12T18:53:18;65365.97;;;1.83;100.00
37132;BME280;23035;50.032;21.978;2023-02-12T18:58:24;65220.34;;;0.48;100.00
37132;BME280;23035;50.032;21.978;2023-02-12T19:03:30;65293.56;;;1.13;100.00
37132;BME280;23035;50.032;21.978;2023-02-12T19:08:34;65248.97;;;0.73;100.00
37132;BME280;23035;50.032;21.978;2023-02-12T19:13:39;65142.41;;;-0.34;100.00
37132;BME280;23035;50.032;21.978;2023-02-12T19:18:48;65162.94;;;-0.07;100.00
37132;BME280;23035;50.032;21.978;2023-02-12T19:23:54;65163.91;;;-0.08;100.00
37132;BME280;23035;50.032;21.978;2023-02-12T19:29:00;65296.34;;;1.19;100.00
37132;BME280;23035;50.032;21.978;2023-02-12T19:34:10;65240.78;;;0.61;100.00
37132;BME280;23035;50.032;21.978;2023-02-12T19:39:19;65251.63;;;0.76;100.00
37132;BME280;23035;50.032;21.978;2023-02-12T19:44:24;65208.56;;;0.35;100.00
37132;BME280;23035;50.032;21.978;2023-02-12T19:49:31;65248.88;;;0.71;100.00
37132;BME280;23035;50.032;21.978;2023-02-12T19:54:36;65296.22;;;1.16;100.00
37132;BME280;23035;50.032;21.978;2023-02-12T19:59:40;65197.59;;;0.29;100.00
37132;BME280;23035;50.032;21.978;2023-02-12T20:04:49;65145.81;;;-0.25;100.00
37132;BME280;23035;50.032;21.978;2023-02-12T20:09:54;65098.41;;;-0.73;100.00
37132;BME280;23035;50.032;21.978;2023-02-12T20:14:59;65138.81;;;-0.35;100.00
37132;BME280;23035;50.032;21.978;2023-02-12T20:20:08;65095.88;;;-0.73;100.00
37132;BME280;23035;50.032;21.978;2023-02-12T20:25:15;65069.31;;;-0.99;100.00
37132;BME280;23035;50.032;21.978;2023-02-12T20:30:20;65043.81;;;-1.23;100.00
37132;BME280;23035;50.032;21.978;2023-02-12T20:35:26;65181.44;;;0.09;100.00
37132;BME280;23035;50.032;21.978;2023-02-12T20:40:32;65219.19;;;0.45;100.00
37132;BME280;23035;50.032;21.978;2023-02-12T20:45:36;65163.91;;;-0.08;100.00
37132;BME280;23035;50.032;21.978;2023-02-12T20:50:42;65179.84;;;0.07;100.00
37132;BME280;23035;50.032;21.978;2023-02-12T20:55:47;65167.31;;;0.00;100.00
37132;BME280;23035;50.032;21.978;2023-02-12T21:00:52;65118.72;;;-0.51;100.00
37132;BME280;23035;50.032;21.978;2023-02-12T21:05:58;65082.16;;;-0.84;100.00
37132;BME280;23035;50.032;21.978;2023-02-12T21:11:06;65077.81;;;-0.91;100.00
37132;BME280;23035;50.032;21.978;2023-02-12T21:16:15;65112.44;;;-0.55;100.00
37132;BME280;23035;50.032;21.978;2023-02-12T21:21:23;65210.47;;;0.32;100.00
37132;BME280;23035;50.032;21.978;2023-02-12T21:26:30;65235.16;;;0.60;100.00
37132;BME280;23035;50.032;21.978;2023-02-12T21:31:37;65252.59;;;0.74;100.00
37132;BME280;23035;50.032;21.978;2023-02-12T21:36:45;65150.06;;;-0.21;100.00
37132;BME280;23035;50.032;21.978;2023-02-12T21:41:50;65205.81;;;0.30;100.00
37132;BME280;23035;50.032;21.978;2023-02-12T21:46:55;65240.88;;;0.63;100.00
37132;BME280;23035;50.032;21.978;2023-02-12T21:52:03;65248.13;;;0.77;100.00
37132;BME280;23035;50.032;21.978;2023-02-12T21:57:08;65284.63;;;1.07;100.00
37132;BME280;23035;50.032;21.978;2023-02-12T22:02:15;65283.34;;;1.01;100.00
37132;BME280;23035;50.032;21.978;2023-02-12T22:07:22;65260.25;;;0.86;100.00
37132;BME280;23035;50.032;21.978;2023-02-12T22:12:26;65291.00;;;1.13;100.00
37132;BME280;23035;50.032;21.978;2023-02-12T22:17:34;65248.66;;;0.78;100.00
37132;BME280;23035;50.032;21.978;2023-02-12T22:22:40;65260.69;;;0.84;100.00
37132;BME280;23035;50.032;21.978;2023-02-12T22:27:45;65087.38;;;-0.81;100.00
37132;BME280;23035;50.032;21.978;2023-02-12T22:32:49;65067.19;;;-1.01;100.00
37132;BME280;23035;50.032;21.978;2023-02-12T22:37:55;65021.53;;;-1.45;100.00
37132;BME280;23035;50.032;21.978;2023-02-12T22:43:00;65033.31;;;-1.31;100.00
37132;BME280;23035;50.032;21.978;2023-02-12T22:48:04;65070.38;;;-0.98;100.00
37132;BME280;23035;50.032;21.978;2023-02-12T22:53:10;65189.41;;;0.16;100.00
37132;BME280;23035;50.032;21.978;2023-02-12T22:58:15;65143.69;;;-0.27;100.00
37132;BME280;23035;50.032;21.978;2023-02-12T23:03:20;65184.41;;;0.07;100.00
37132;BME280;23035;50.032;21.978;2023-02-12T23:08:26;65112.34;;;-0.57;100.00
37132;BME280;23035;50.032;21.978;2023-02-12T23:13:30;65121.50;;;-0.46;100.00
37132;BME280;23035;50.032;21.978;2023-02-12T23:18:35;65236.66;;;0.59;100.00
37132;BME280;23035;50.032;21.978;2023-02-12T23:23:41;65187.28;;;0.14;100.00
37132;BME280;23035;50.032;21.978;2023-02-12T23:28:45;65109.16;;;-0.61;100.00
37132;BME280;23035;50.032;21.978;2023-02-12T23:33:50;65148.38;;;-0.25;100.00
37132;BME280;23035;50.032;21.978;2023-02-12T23:38:56;65212.16;;;0.36;100.00
37132;BME280;23035;50.032;21.978;2023-02-12T23:44:01;65153.28;;;-0.18;100.00
37132;BME280;23035;50.032;21.978;2023-02-12T23:49:05;65289.41;;;1.12;100.00
37132;BME280;23035;50.032;21.978;2023-02-12T23:54:12;65196.22;;;0.20;100.00
37132;BME280;23035;50.032;21.978;2023-02-12T23:59:16;65385.44;;;2.09;100.00
